Time;durP1;ratioP1;P1;durP2;ratioP2;P2;SDS_P1;SDS_P2;PMS_P1;PMS_P2;Temp;Humidity;BMP_temperature;BMP_pressure;BME280_temperature;BME280_humidity;BME280_pressure;Samples;Min_cycle;Max_cycle;Signal;HPM_P1;HPM_P2
2023/07/10 00:01:11;;;;;;;;;5.50;5.00;;;;;;;;5097346;27;45401;-46
2023/07/10 00:03:36;;;;;;;;;5.60;4.80;;;;;;;;5098207;27;45316;-46
2023/07/10 00:06:01;;;;;;;;;12.75;7.50;;;;;;;;5098066;27;45316;-46
2023/07/10 00:08:26;;;;;;;;;15.25;11.00;;;;;;;;5097888;27;45191;-47
2023/07/10 00:10:52;;;;;;;;;12.25;9.50;;;;;;;;5097481;27;45401;-43
2023/07/10 00:13:21;;;;;;;;;15.00;12.00;;;;;;;;5097572;27;45250;-48
2023/07/10 00:15:47;;;;;;;;;9.40;7.80;;;;;;;;5079368;27;45370;-45
2023/07/10 00:18:17;;;;;;;;;9.00;9.00;;;;;;;;5097442;27;45582;-46
2023/07/10 00:20:42;;;;;;;;;6.00;6.00;;;;;;;;5097410;27;45353;-43
2023/07/10 00:23:08;;;;;;;;;7.75;5.00;;;;;;;;5097813;27;45306;-47
2023/07/10 00:25:33;;;;;;;;;9.75;8.25;;;;;;;;5097605;27;45219;-44
2023/07/10 00:27:58;;;;;;;;;6.25;6.00;;;;;;;;5097337;27;46104;-49
2023/07/10 00:30:25;;;;;;;;;7.75;6.25;;;;;;;;5097086;27;45321;-45
2023/07/10 00:32:54;;;;;;;;;5.80;5.40;;;;;;;;5097629;27;45404;-46
2023/07/10 00:35:19;;;;;;;;;5.60;2.40;;;;;;;;5097587;27;45451;-45
2023/07/10 00:37:46;;;;;;;;;6.50;6.50;;;;;;;;5097539;27;45352;-44
2023/07/10 00:40:19;;;;;;;;;7.00;5.00;;;;;;;;5096265;27;45307;-46
2023/07/10 00:42:46;;;;;;;;;7.40;7.20;;;;;;;;5097411;27;45262;-44
2023/07/10 00:45:13;;;;;;;;;11.75;8.75;;;;;;;;5097616;27;45358;-48
2023/07/10 00:47:41;;;;;;;;;13.00;9.00;;;;;;;;5097238;27;46274;-47
2023/07/10 00:50:15;;;;;;;;;14.80;9.80;;;;;;;;5097011;27;45343;-44
2023/07/10 00:52:45;;;;;;;;;16.80;12.00;;;;;;;;5097092;27;45521;-43
2023/07/10 00:55:19;;;;;;;;;17.50;15.00;;;;;;;;5097565;27;45350;-45
2023/07/10 00:57:47;;;;;;;;;5.00;3.50;;;;;;;;5096919;27;47365;-45
2023/07/10 01:00:17;;;;;;;;;18.80;14.60;;;;;;;;5097260;27;45202;-44
2023/07/10 01:02:43;;;;;;;;;18.60;13.60;;;;;;;;5097432;27;45405;-43
2023/07/10 01:05:08;;;;;;;;;11.50;11.50;;;;;;;;5097418;27;45432;-46
2023/07/10 01:07:37;;;;;;;;;11.75;9.75;;;;;;;;5096918;27;46106;-45
2023/07/10 01:10:05;;;;;;;;;14.80;10.80;;;;;;;;5096907;27;45274;-47
2023/07/10 01:12:31;;;;;;;;;10.60;8.60;;;;;;;;5097460;27;45311;-50
2023/07/10 01:14:56;;;;;;;;;6.50;6.50;;;;;;;;5100773;27;45358;-50
2023/07/10 01:17:21;;;;;;;;;5.50;3.50;;;;;;;;5100544;27;45309;-48
2023/07/10 01:19:48;;;;;;;;;8.50;5.00;;;;;;;;5100290;27;45310;-44
2023/07/10 01:22:13;;;;;;;;;5.20;5.20;;;;;;;;5100572;27;45327;-44
2023/07/10 01:24:39;;;;;;;;;4.50;4.00;;;;;;;;5100632;27;45453;-45
2023/07/10 01:27:11;;;;;;;;;5.25;5.25;;;;;;;;5100160;27;45306;-48
2023/07/10 01:29:41;;;;;;;;;6.00;5.80;;;;;;;;5100085;27;45280;-50
2023/07/10 01:32:08;;;;;;;;;11.60;7.80;;;;;;;;5098857;27;45412;-47
2023/07/10 01:34:37;;;;;;;;;7.75;6.50;;;;;;;;5100481;27;45417;-46
2023/07/10 01:37:03;;;;;;;;;4.40;4.40;;;;;;;;5100026;27;46194;-49
2023/07/10 01:39:32;;;;;;;;;6.60;4.80;;;;;;;;5100096;27;45407;-47
2023/07/10 01:41:57;;;;;;;;;9.00;6.40;;;;;;;;5100308;27;45261;-50
2023/07/10 01:44:28;;;;;;;;;9.00;6.00;;;;;;;;5100424;27;45434;-44
2023/07/10 01:46:55;;;;;;;;;7.00;7.00;;;;;;;;5100035;27;46082;-50
2023/07/10 01:49:26;;;;;;;;;6.20;5.00;;;;;;;;5099949;27;45357;-52
2023/07/10 01:51:52;;;;;;;;;6.20;5.00;;;;;;;;5099971;27;45455;-44
2023/07/10 01:54:17;;;;;;;;;7.80;4.80;;;;;;;;5100080;27;45428;-48
2023/07/10 01:56:43;;;;;;;;;7.00;6.25;;;;;;;;5081061;27;45369;-49
2023/07/10 01:59:09;;;;;;;;;4.80;4.60;;;;;;;;5099792;27;45346;-43
2023/07/10 02:01:34;;;;;;;;;5.50;4.00;;;;;;;;5099955;27;45442;-43
2023/07/10 02:03:59;;;;;;;;;5.25;5.25;;;;;;;;5100130;27;45222;-45
2023/07/10 02:06:25;;;;;;;;;9.75;6.75;;;;;;;;5099303;27;47122;-47
2023/07/10 02:08:51;;;;;;;;;7.00;5.00;;;;;;;;5099709;27;45323;-45
2023/07/10 02:11:16;;;;;;;;;4.25;4.00;;;;;;;;5099520;27;45574;-44
2023/07/10 02:13:41;;;;;;;;;3.75;3.75;;;;;;;;5100313;27;45373;-45
2023/07/10 02:16:09;;;;;;;;;4.75;4.75;;;;;;;;5098762;27;45412;-42
2023/07/10 02:18:34;;;;;;;;;4.60;3.80;;;;;;;;5099470;27;45314;-44
2023/07/10 02:20:59;;;;;;;;;1.00;1.00;;;;;;;;5099637;27;45910;-44
2023/07/10 02:23:25;;;;;;;;;8.00;4.50;;;;;;;;5099286;27;45461;-40
2023/07/10 02:25:50;;;;;;;;;4.25;4.00;;;;;;;;5099371;27;45498;-43
2023/07/10 02:28:15;;;;;;;;;6.75;6.00;;;;;;;;5099570;27;45417;-47
2023/07/10 02:30:40;;;;;;;;;5.00;5.00;;;;;;;;5099259;27;45276;-44
2023/07/10 02:33:06;;;;;;;;;6.00;6.00;;;;;;;;5099542;27;45314;-44
2023/07/10 02:35:31;;;;;;;;;8.00;5.00;;;;;;;;5098801;27;46933;-44
2023/07/10 02:37:56;;;;;;;;;5.00;5.00;;;;;;;;5099229;27;45293;-44
2023/07/10 02:40:22;;;;;;;;;9.00;6.25;;;;;;;;5099611;27;45341;-47
2023/07/10 02:42:47;;;;;;;;;9.75;7.50;;;;;;;;5099525;27;45432;-47
2023/07/10 02:45:13;;;;;;;;;7.00;5.50;;;;;;;;5099280;27;46099;-42
2023/07/10 02:47:38;;;;;;;;;10.25;7.50;;;;;;;;5099170;27;45539;-45
2023/07/10 02:50:03;;;;;;;;;6.75;6.75;;;;;;;;5099355;27;45231;-47
2023/07/10 02:52:28;;;;;;;;;7.00;6.25;;;;;;;;5098650;27;45477;-46
2023/07/10 02:54:53;;;;;;;;;7.75;6.00;;;;;;;;5098950;27;45360;-47
2023/07/10 02:57:19;;;;;;;;;4.75;4.75;;;;;;;;5099121;27;45321;-42
2023/07/10 02:59:44;;;;;;;;;3.75;2.75;;;;;;;;5099177;27;45274;-45
2023/07/10 03:02:09;;;;;;;;;3.25;3.25;;;;;;;;5099263;27;45529;-47
2023/07/10 03:04:34;;;;;;;;;4.25;4.25;;;;;;;;5098970;27;46179;-41
2023/07/10 03:07:00;;;;;;;;;6.50;4.75;;;;;;;;5098730;27;45353;-43
2023/07/10 03:09:25;;;;;;;;;4.25;4.25;;;;;;;;5099106;27;45289;-48
2023/07/10 03:11:50;;;;;;;;;2.75;2.00;;;;;;;;5098938;27;46047;-50
2023/07/10 03:14:15;;;;;;;;;5.25;5.00;;;;;;;;5098752;27;45312;-43
2023/07/10 03:16:40;;;;;;;;;12.75;5.00;;;;;;;;5098724;27;45379;-45
2023/07/10 03:19:05;;;;;;;;;4.00;3.25;;;;;;;;5098556;27;45365;-45
2023/07/10 03:21:31;;;;;;;;;4.00;4.00;;;;;;;;5098749;27;45351;-43
2023/07/10 03:23:57;;;;;;;;;5.00;5.00;;;;;;;;5098535;27;46276;-43
2023/07/10 03:26:22;;;;;;;;;4.40;3.60;;;;;;;;5098699;27;45407;-45
2023/07/10 03:29:00;;;;;;;;;4.00;4.00;;;;;;;;5098582;27;45315;-49
2023/07/10 03:31:25;;;;;;;;;3.60;3.60;;;;;;;;5098267;27;45451;-50
2023/07/10 03:33:51;;;;;;;;;4.75;3.25;;;;;;;;5098620;27;45504;-47
2023/07/10 03:36:17;;;;;;;;;3.00;3.00;;;;;;;;5097388;27;45316;-47
2023/07/10 03:38:42;;;;;;;;;6.00;4.00;;;;;;;;5098223;27;45365;-46
2023/07/10 03:41:07;;;;;;;;;3.50;3.00;;;;;;;;5080483;27;45360;-47
2023/07/10 03:43:32;;;;;;;;;3.75;3.00;;;;;;;;5098077;27;45415;-52
2023/07/10 03:45:57;;;;;;;;;5.50;3.75;;;;;;;;5098485;27;45350;-47
2023/07/10 03:48:23;;;;;;;;;4.00;4.00;;;;;;;;5098200;27;45407;-49
2023/07/10 03:50:48;;;;;;;;;4.25;4.25;;;;;;;;5098430;27;46078;-52
2023/07/10 03:53:13;;;;;;;;;3.00;2.25;;;;;;;;5098102;27;46007;-45
2023/07/10 03:55:47;;;;;;;;;3.25;2.00;;;;;;;;5098190;27;45417;-50
2023/07/10 03:58:20;;;;;;;;;2.80;2.80;;;;;;;;5098322;27;45360;-46
2023/07/10 04:00:45;;;;;;;;;8.00;4.00;;;;;;;;5098075;27;45402;-47
2023/07/10 04:03:10;;;;;;;;;4.75;2.00;;;;;;;;5097819;27;46131;-50
2023/07/10 04:05:35;;;;;;;;;4.25;4.25;;;;;;;;5097798;27;45438;-46
2023/07/10 04:08:00;;;;;;;;;5.00;4.50;;;;;;;;5097843;27;45439;-50
2023/07/10 04:10:26;;;;;;;;;5.00;3.00;;;;;;;;5098018;27;45440;-44
2023/07/10 04:12:51;;;;;;;;;1.50;1.50;;;;;;;;5097866;27;45334;-51
2023/07/10 04:15:16;;;;;;;;;3.00;3.00;;;;;;;;5097639;27;45436;-46
2023/07/10 04:17:41;;;;;;;;;4.00;4.00;;;;;;;;5097887;27;45418;-49
2023/07/10 04:20:07;;;;;;;;;8.00;3.75;;;;;;;;5096560;27;45323;-42
2023/07/10 04:22:32;;;;;;;;;3.50;3.50;;;;;;;;5097300;27;47035;-47
2023/07/10 04:25:04;;;;;;;;;6.50;5.00;;;;;;;;5097500;27;45376;-47
2023/07/10 04:27:29;;;;;;;;;7.25;6.00;;;;;;;;5097538;27;45361;-51
2023/07/10 04:29:54;;;;;;;;;5.75;4.50;;;;;;;;5097766;27;45440;-47
2023/07/10 04:32:19;;;;;;;;;11.25;9.75;;;;;;;;5097356;27;45623;-50
2023/07/10 04:34:44;;;;;;;;;5.75;4.50;;;;;;;;5097520;27;45622;-47
2023/07/10 04:37:10;;;;;;;;;7.00;6.00;;;;;;;;5097536;27;45461;-43
2023/07/10 04:39:35;;;;;;;;;6.00;4.25;;;;;;;;5097753;27;45385;-51
2023/07/10 04:42:00;;;;;;;;;5.00;4.00;;;;;;;;5097236;27;46138;-51
2023/07/10 04:44:25;;;;;;;;;5.00;5.00;;;;;;;;5097404;27;45430;-51
2023/07/10 04:46:50;;;;;;;;;5.00;5.00;;;;;;;;5097824;27;45481;-50
2023/07/10 04:49:16;;;;;;;;;5.25;5.00;;;;;;;;5100080;27;45541;-50
2023/07/10 04:51:41;;;;;;;;;5.25;4.75;;;;;;;;5100531;27;47122;-49
2023/07/10 04:54:06;;;;;;;;;4.00;4.00;;;;;;;;5101047;27;45350;-48
2023/07/10 04:56:31;;;;;;;;;3.00;3.00;;;;;;;;5100939;27;45448;-52
2023/07/10 04:58:57;;;;;;;;;5.25;5.00;;;;;;;;5101249;27;45315;-49
2023/07/10 05:01:27;;;;;;;;;4.50;4.50;;;;;;;;5100834;27;45516;-49
2023/07/10 05:03:52;;;;;;;;;6.40;4.00;;;;;;;;5100607;27;45455;-49
2023/07/10 05:06:18;;;;;;;;;8.00;6.25;;;;;;;;5100991;27;45322;-46
2023/07/10 05:08:44;;;;;;;;;6.50;4.00;;;;;;;;5082459;27;45295;-48
2023/07/10 05:11:09;;;;;;;;;4.25;4.25;;;;;;;;5100340;27;46948;-47
2023/07/10 05:13:34;;;;;;;;;4.25;4.25;;;;;;;;5100749;27;45285;-44
2023/07/10 05:16:00;;;;;;;;;8.75;7.00;;;;;;;;5100607;27;45307;-52
2023/07/10 05:18:26;;;;;;;;;8.50;7.25;;;;;;;;5099791;27;45572;-50
2023/07/10 05:20:51;;;;;;;;;7.25;5.00;;;;;;;;5100277;27;46160;-46
2023/07/10 05:23:17;;;;;;;;;4.00;4.00;;;;;;;;5099162;27;45378;-46
2023/07/10 05:25:54;;;;;;;;;3.00;3.00;;;;;;;;5100698;27;45305;-46
2023/07/10 05:28:20;;;;;;;;;4.25;4.25;;;;;;;;5100701;27;45486;-53
2023/07/10 05:30:45;;;;;;;;;3.75;3.75;;;;;;;;5100079;27;46331;-46
2023/07/10 05:33:10;;;;;;;;;5.00;3.75;;;;;;;;5100442;27;45416;-50
2023/07/10 05:35:35;;;;;;;;;4.00;4.00;;;;;;;;5100341;27;45480;-47
2023/07/10 05:38:00;;;;;;;;;5.25;3.50;;;;;;;;5081864;27;45429;-49
2023/07/10 05:40:26;;;;;;;;;3.50;3.50;;;;;;;;5100231;27;45383;-50
2023/07/10 05:42:51;;;;;;;;;6.00;6.00;;;;;;;;5100189;27;45161;-46
2023/07/10 05:45:16;;;;;;;;;8.50;4.25;;;;;;;;5100369;27;45337;-46
2023/07/10 05:47:41;;;;;;;;;3.75;3.75;;;;;;;;5100400;27;45348;-51
2023/07/10 05:50:06;;;;;;;;;5.00;5.00;;;;;;;;5099981;27;45225;-49
2023/07/10 05:52:32;;;;;;;;;4.00;4.00;;;;;;;;5099777;27;45301;-48
2023/07/10 05:54:57;;;;;;;;;4.25;3.50;;;;;;;;5100147;27;45370;-49
2023/07/10 05:57:22;;;;;;;;;3.50;3.25;;;;;;;;5100193;27;45322;-48
2023/07/10 05:59:48;;;;;;;;;3.75;3.75;;;;;;;;5080536;27;46683;-47
2023/07/10 06:02:13;;;;;;;;;6.00;4.50;;;;;;;;5100011;27;45303;-51
2023/07/10 06:04:39;;;;;;;;;6.00;3.00;;;;;;;;5100021;27;45210;-47
2023/07/10 06:07:05;;;;;;;;;7.25;5.25;;;;;;;;5099978;27;45528;-52
2023/07/10 06:09:30;;;;;;;;;7.20;4.40;;;;;;;;5099434;27;45361;-48
2023/07/10 06:11:55;;;;;;;;;4.00;4.00;;;;;;;;5099598;27;45408;-46
2023/07/10 06:14:20;;;;;;;;;4.50;3.00;;;;;;;;5099997;27;45402;-46
2023/07/10 06:16:45;;;;;;;;;4.00;3.00;;;;;;;;5100020;27;45438;-49
2023/07/10 06:19:11;;;;;;;;;3.00;3.00;;;;;;;;5099471;27;45562;-47
2023/07/10 06:21:36;;;;;;;;;4.75;4.00;;;;;;;;5099381;27;45433;-48
2023/07/10 06:24:01;;;;;;;;;4.00;2.50;;;;;;;;5099390;27;45524;-46
2023/07/10 06:26:26;;;;;;;;;5.00;4.00;;;;;;;;5081286;27;45346;-46
2023/07/10 06:28:51;;;;;;;;;6.00;5.75;;;;;;;;5099296;27;46180;-52
2023/07/10 06:31:17;;;;;;;;;7.00;4.00;;;;;;;;5099171;27;45408;-46
2023/07/10 06:33:42;;;;;;;;;6.00;5.00;;;;;;;;5099440;27;45456;-47
2023/07/10 06:36:09;;;;;;;;;5.00;3.25;;;;;;;;5099666;27;45403;-53
2023/07/10 06:38:35;;;;;;;;;5.80;4.00;;;;;;;;5098980;27;45362;-49
2023/07/10 06:41:00;;;;;;;;;2.25;2.25;;;;;;;;5099508;27;45428;-52
2023/07/10 06:43:26;;;;;;;;;5.25;2.50;;;;;;;;5099530;27;45397;-57
2023/07/10 06:45:51;;;;;;;;;3.50;3.50;;;;;;;;5099847;27;45393;-44
2023/07/10 06:48:17;;;;;;;;;2.00;2.00;;;;;;;;5099235;27;46272;-57
2023/07/10 06:51:00;;;;;;;;;3.00;3.00;;;;;;;;5099373;27;45369;-57
2023/07/10 06:53:25;;;;;;;;;2.80;2.80;;;;;;;;5099440;27;45361;-58
2023/07/10 06:56:00;;;;;;;;;4.00;3.50;;;;;;;;5099614;27;45221;-54
2023/07/10 06:58:25;;;;;;;;;2.00;2.00;;;;;;;;5099128;27;45302;-53
2023/07/10 07:00:51;;;;;;;;;3.25;1.75;;;;;;;;5098904;27;45194;-54
2023/07/10 07:03:17;;;;;;;;;3.75;2.25;;;;;;;;5099162;27;45211;-55
2023/07/10 07:05:43;;;;;;;;;3.75;2.00;;;;;;;;5099329;27;45286;-53
2023/07/10 07:08:08;;;;;;;;;3.00;3.00;;;;;;;;5098805;27;46170;-50
2023/07/10 07:10:33;;;;;;;;;3.75;3.00;;;;;;;;5097664;27;45413;-44
2023/07/10 07:12:59;;;;;;;;;3.00;1.00;;;;;;;;5099160;27;45369;-56
2023/07/10 07:15:24;;;;;;;;;2.75;2.75;;;;;;;;5099124;27;45432;-44
2023/07/10 07:17:49;;;;;;;;;10.25;7.25;;;;;;;;5098801;27;45409;-53
2023/07/10 07:20:14;;;;;;;;;3.50;3.25;;;;;;;;5098765;27;45404;-52
2023/07/10 07:22:40;;;;;;;;;2.25;2.00;;;;;;;;5099035;27;45306;-54
2023/07/10 07:25:05;;;;;;;;;3.25;3.25;;;;;;;;5080641;27;45497;-58
2023/07/10 07:27:31;;;;;;;;;4.75;3.50;;;;;;;;5098716;27;46159;-46
2023/07/10 07:29:57;;;;;;;;;5.00;3.60;;;;;;;;5098339;27;45354;-46
2023/07/10 07:32:22;;;;;;;;;3.75;3.75;;;;;;;;5098690;27;45474;-46
2023/07/10 07:34:47;;;;;;;;;1.00;1.00;;;;;;;;5098767;27;45333;-52
2023/07/10 07:37:13;;;;;;;;;4.75;2.00;;;;;;;;5098332;27;46347;-53
2023/07/10 07:39:38;;;;;;;;;1.00;1.00;;;;;;;;5098111;27;45433;-56
2023/07/10 07:42:03;;;;;;;;;2.50;2.50;;;;;;;;5098637;27;45448;-59
2023/07/10 07:44:29;;;;;;;;;3.00;2.00;;;;;;;;5097948;27;45527;-55
2023/07/10 07:46:54;;;;;;;;;1.75;1.50;;;;;;;;5098360;27;45352;-54
2023/07/10 07:49:23;;;;;;;;;1.75;1.75;;;;;;;;5098384;27;45358;-53
2023/07/10 07:51:48;;;;;;;;;4.40;1.80;;;;;;;;5098272;27;45415;-59
2023/07/10 07:54:14;;;;;;;;;2.00;2.00;;;;;;;;5098166;27;45325;-47
2023/07/10 07:56:40;;;;;;;;;4.00;2.50;;;;;;;;5097727;27;46113;-58
2023/07/10 07:59:05;;;;;;;;;3.50;2.50;;;;;;;;5098104;27;45559;-51
2023/07/10 08:01:31;;;;;;;;;1.75;0.75;;;;;;;;5098177;27;45333;-54
2023/07/10 08:03:56;;;;;;;;;2.50;2.00;;;;;;;;5098210;27;45466;-57
2023/07/10 08:06:22;;;;;;;;;3.00;1.75;;;;;;;;5097999;27;46200;-57
2023/07/10 08:08:47;;;;;;;;;1.25;1.25;;;;;;;;5097664;27;45317;-56
2023/07/10 08:11:12;;;;;;;;;2.75;1.25;;;;;;;;5097908;27;45384;-56
2023/07/10 08:13:38;;;;;;;;;1.25;1.00;;;;;;;;5098080;27;45400;-57
2023/07/10 08:16:03;;;;;;;;;1.00;1.00;;;;;;;;5097574;27;45731;-57
2023/07/10 08:18:28;;;;;;;;;4.00;1.75;;;;;;;;5097894;27;45395;-58
2023/07/10 08:21:00;;;;;;;;;2.25;1.50;;;;;;;;5097709;27;45330;-57
2023/07/10 08:23:26;;;;;;;;;2.00;2.00;;;;;;;;5097749;27;45387;-58
2023/07/10 08:25:51;;;;;;;;;1.25;0.75;;;;;;;;5097555;27;45243;-56
2023/07/10 08:28:16;;;;;;;;;4.00;1.00;;;;;;;;5097500;27;45511;-56
2023/07/10 08:30:41;;;;;;;;;1.00;1.00;;;;;;;;5097317;27;45413;-51
2023/07/10 08:33:10;;;;;;;;;4.40;2.40;;;;;;;;5097749;27;45598;-54
2023/07/10 08:35:35;;;;;;;;;1.40;1.40;;;;;;;;5097326;27;46094;-50
2023/07/10 08:38:00;;;;;;;;;2.75;1.75;;;;;;;;5097729;27;45247;-57
2023/07/10 08:40:30;;;;;;;;;0.00;0.00;;;;;;;;5097692;27;45211;-52
2023/07/10 08:42:56;;;;;;;;;3.80;2.20;;;;;;;;5097764;27;45421;-56
2023/07/10 08:45:31;;;;;;;;;1.50;1.50;;;;;;;;5097266;27;47284;-53
2023/07/10 08:48:00;;;;;;;;;1.00;1.00;;;;;;;;5097122;27;45357;-56
2023/07/10 08:50:29;;;;;;;;;1.40;1.20;;;;;;;;5096429;27;45216;-57
2023/07/10 08:53:03;;;;;;;;;1.00;1.00;;;;;;;;5097572;27;45697;-57
2023/07/10 08:55:36;;;;;;;;;1.40;1.00;;;;;;;;5096910;27;46299;-54
2023/07/10 08:58:02;;;;;;;;;2.60;1.00;;;;;;;;5097161;27;45343;-53
2023/07/10 09:00:30;;;;;;;;;2.80;0.20;;;;;;;;5096115;27;45339;-56
2023/07/10 09:03:04;;;;;;;;;0.80;0.80;;;;;;;;5097541;27;45379;-55
2023/07/10 09:05:30;;;;;;;;;0.80;0.80;;;;;;;;5097031;27;46191;-56
2023/07/10 09:07:59;;;;;;;;;1.80;1.80;;;;;;;;5097060;27;45337;-55
2023/07/10 09:10:30;;;;;;;;;1.40;1.20;;;;;;;;5096874;27;45479;-56
2023/07/10 09:12:57;;;;;;;;;3.20;3.20;;;;;;;;5078892;27;45468;-55
2023/07/10 09:15:31;;;;;;;;;1.20;0.20;;;;;;;;5097030;27;45317;-56
2023/07/10 09:17:57;;;;;;;;;0.60;0.60;;;;;;;;5096868;27;45491;-56
2023/07/10 09:20:24;;;;;;;;;0.00;0.00;;;;;;;;5096840;27;45435;-57
2023/07/10 09:22:59;;;;;;;;;1.20;0.00;;;;;;;;5096067;27;45315;-57
2023/07/10 09:25:25;;;;;;;;;1.20;0.20;;;;;;;;5096728;27;45309;-57
2023/07/10 09:27:50;;;;;;;;;0.00;0.00;;;;;;;;5096950;27;45371;-55
2023/07/10 09:30:39;;;;;;;;;0.50;0.50;;;;;;;;5096931;27;45537;-57
2023/07/10 09:33:06;;;;;;;;;0.40;0.40;;;;;;;;5096990;27;45344;-56
2023/07/10 09:35:33;;;;;;;;;1.00;1.00;;;;;;;;5100144;27;46076;-54
2023/07/10 09:38:00;;;;;;;;;2.80;1.00;;;;;;;;5100291;27;45317;-49
2023/07/10 09:40:31;;;;;;;;;0.00;0.00;;;;;;;;5081919;27;45432;-55
2023/07/10 09:43:01;;;;;;;;;0.60;0.60;;;;;;;;5100558;27;45323;-57
2023/07/10 09:45:31;;;;;;;;;1.20;0.80;;;;;;;;5100094;27;45326;-58
2023/07/10 09:47:56;;;;;;;;;0.60;0.60;;;;;;;;5100173;27;45350;-56
2023/07/10 09:50:21;;;;;;;;;0.00;0.00;;;;;;;;5100324;27;45428;-53
2023/07/10 09:52:55;;;;;;;;;2.00;0.00;;;;;;;;5100156;27;45330;-52
2023/07/10 09:55:22;;;;;;;;;0.80;0.80;;;;;;;;5099941;27;45415;-54
2023/07/10 09:57:47;;;;;;;;;3.00;1.20;;;;;;;;5100066;27;45381;-57
2023/07/10 10:00:15;;;;;;;;;1.50;1.50;;;;;;;;5100482;27;45412;-52
2023/07/10 10:02:42;;;;;;;;;2.80;1.00;;;;;;;;5100220;27;45370;-58
2023/07/10 10:05:10;;;;;;;;;1.00;1.00;;;;;;;;5099926;27;47085;-55
2023/07/10 10:07:38;;;;;;;;;2.40;1.20;;;;;;;;5099878;27;45392;-52
2023/07/10 10:10:21;;;;;;;;;0.00;0.00;;;;;;;;5099846;27;45462;-55
2023/07/10 10:13:06;;;;;;;;;1.40;1.40;;;;;;;;5100123;27;45460;-53
2023/07/10 10:15:38;;;;;;;;;0.00;0.00;;;;;;;;5085187;27;46755;-58
2023/07/10 10:18:04;;;;;;;;;0.00;0.00;;;;;;;;5099975;27;45207;-53
2023/07/10 10:20:31;;;;;;;;;2.00;0.60;;;;;;;;5100052;27;45266;-55
2023/07/10 10:22:57;;;;;;;;;2.00;1.00;;;;;;;;5100041;27;45342;-53
2023/07/10 10:25:29;;;;;;;;;2.80;2.00;;;;;;;;5099504;27;46266;-55
2023/07/10 10:28:10;;;;;;;;;0.00;0.00;;;;;;;;5099636;27;45410;-56
2023/07/10 10:30:56;;;;;;;;;2.00;0.40;;;;;;;;5099607;27;45528;-50
2023/07/10 10:33:21;;;;;;;;;1.00;0.80;;;;;;;;5098967;27;45382;-56
2023/07/10 10:35:49;;;;;;;;;1.00;1.00;;;;;;;;5099610;27;45325;-54
2023/07/10 10:38:24;;;;;;;;;1.80;0.40;;;;;;;;5099568;27;45340;-55
2023/07/10 10:40:51;;;;;;;;;1.80;1.20;;;;;;;;5099448;27;45398;-57
2023/07/10 10:43:19;;;;;;;;;0.40;0.40;;;;;;;;5099758;27;45300;-57
2023/07/10 10:45:51;;;;;;;;;3.00;1.60;;;;;;;;5098077;27;46575;-57
2023/07/10 10:48:24;;;;;;;;;2.00;1.80;;;;;;;;5099236;27;45408;-56
2023/07/10 10:51:08;;;;;;;;;1.00;1.00;;;;;;;;5099308;27;45329;-49
2023/07/10 10:53:50;;;;;;;;;0.40;0.40;;;;;;;;5099605;27;45207;-50
2023/07/10 10:56:24;;;;;;;;;1.00;1.00;;;;;;;;5099060;27;47053;-47
2023/07/10 10:58:55;;;;;;;;;2.00;1.00;;;;;;;;5099031;27;45437;-45
2023/07/10 11:01:33;;;;;;;;;1.80;0.60;;;;;;;;5099429;27;45286;-56
2023/07/10 11:04:03;;;;;;;;;3.60;1.00;;;;;;;;5099580;27;45377;-48
2023/07/10 11:06:44;;;;;;;;;0.20;0.20;;;;;;;;5098300;27;45384;-44
2023/07/10 11:09:21;;;;;;;;;1.20;1.20;;;;;;;;5099417;27;45349;-49
2023/07/10 11:11:47;;;;;;;;;3.40;1.20;;;;;;;;5099325;27;45348;-44
2023/07/10 11:14:12;;;;;;;;;0.00;0.00;;;;;;;;5099369;27;45351;-47
2023/07/10 11:16:38;;;;;;;;;0.25;0.25;;;;;;;;5099213;27;45441;-47
2023/07/10 11:19:04;;;;;;;;;1.25;1.00;;;;;;;;5099383;27;45235;-45
2023/07/10 11:21:30;;;;;;;;;0.80;0.80;;;;;;;;5098671;27;45243;-46
2023/07/10 11:23:56;;;;;;;;;1.80;1.40;;;;;;;;5099959;27;45422;-52
2023/07/10 11:26:21;;;;;;;;;1.75;1.75;;;;;;;;5099011;27;45383;-50
2023/07/10 11:28:49;;;;;;;;;1.50;0.50;;;;;;;;5099208;27;45327;-48
2023/07/10 11:31:35;;;;;;;;;1.00;1.00;;;;;;;;5099109;27;45478;-57
2023/07/10 11:34:06;;;;;;;;;2.00;2.00;;;;;;;;5098799;27;45585;-45
2023/07/10 11:36:34;;;;;;;;;1.60;1.00;;;;;;;;5098905;27;45369;-56
2023/07/10 11:39:05;;;;;;;;;1.00;0.80;;;;;;;;5098945;27;45379;-44
2023/07/10 11:41:31;;;;;;;;;0.20;0.20;;;;;;;;5099184;27;45285;-48
2023/07/10 11:44:15;;;;;;;;;2.60;0.00;;;;;;;;5099028;27;45326;-44
2023/07/10 11:47:02;;;;;;;;;1.00;1.00;;;;;;;;5098675;27;46929;-45
2023/07/10 11:49:44;;;;;;;;;2.60;0.80;;;;;;;;5098623;27;45341;-46
2023/07/10 11:52:15;;;;;;;;;0.40;0.40;;;;;;;;5098596;27;45372;-53
2023/07/10 11:54:41;;;;;;;;;0.20;0.20;;;;;;;;5098682;27;45409;-58
2023/07/10 11:57:09;;;;;;;;;2.25;0.25;;;;;;;;5097365;27;45511;-45
2023/07/10 11:59:35;;;;;;;;;3.00;2.20;;;;;;;;5098366;27;45402;-44
2023/07/10 12:02:00;;;;;;;;;2.00;1.50;;;;;;;;5098362;27;45382;-45
2023/07/10 12:04:26;;;;;;;;;1.75;1.75;;;;;;;;5080099;27;45278;-55
2023/07/10 12:06:51;;;;;;;;;1.75;1.00;;;;;;;;5097832;27;46475;-47
2023/07/10 12:09:16;;;;;;;;;2.75;1.00;;;;;;;;5098035;27;45318;-57
2023/07/10 12:11:42;;;;;;;;;1.00;1.00;;;;;;;;5098119;27;45380;-45
2023/07/10 12:14:11;;;;;;;;;0.00;0.00;;;;;;;;5098374;27;45416;-46
2023/07/10 12:16:51;;;;;;;;;1.20;1.00;;;;;;;;5097816;27;46228;-46
2023/07/10 12:19:18;;;;;;;;;2.00;1.00;;;;;;;;5098061;27;45341;-50
2023/07/10 12:21:44;;;;;;;;;1.20;0.80;;;;;;;;5098171;27;45291;-57
2023/07/10 12:24:14;;;;;;;;;1.40;1.00;;;;;;;;5098170;27;45436;-49
2023/07/10 12:26:39;;;;;;;;;0.20;0.20;;;;;;;;5079395;27;46160;-57
2023/07/10 12:29:07;;;;;;;;;1.25;1.25;;;;;;;;5097881;27;45219;-55
2023/07/10 12:31:32;;;;;;;;;0.00;0.00;;;;;;;;5098088;27;45374;-47
2023/07/10 12:34:00;;;;;;;;;1.00;1.00;;;;;;;;5098120;27;45417;-47
2023/07/10 12:36:33;;;;;;;;;1.60;1.60;;;;;;;;5097470;27;46460;-44
2023/07/10 12:38:59;;;;;;;;;2.00;0.00;;;;;;;;5097875;27;45310;-46
2023/07/10 12:41:25;;;;;;;;;0.80;0.80;;;;;;;;5097734;27;45309;-44
2023/07/10 12:43:56;;;;;;;;;1.50;0.25;;;;;;;;5097983;27;45455;-44
2023/07/10 12:46:22;;;;;;;;;1.40;1.40;;;;;;;;5097740;27;46260;-43
2023/07/10 12:48:49;;;;;;;;;5.40;1.60;;;;;;;;5097542;27;45317;-46
2023/07/10 12:51:22;;;;;;;;;1.40;1.40;;;;;;;;5097416;27;45426;-46
2023/07/10 12:53:48;;;;;;;;;0.20;0.20;;;;;;;;5097959;27;45293;-45
2023/07/10 12:56:25;;;;;;;;;1.75;1.75;;;;;;;;5097154;27;46934;-55
2023/07/10 12:58:50;;;;;;;;;2.80;1.40;;;;;;;;5097471;27;45306;-45
2023/07/10 13:01:15;;;;;;;;;3.00;2.00;;;;;;;;5097754;27;45366;-53
2023/07/10 13:03:40;;;;;;;;;1.00;1.00;;;;;;;;5097846;27;45528;-46
2023/07/10 13:06:07;;;;;;;;;3.50;2.50;;;;;;;;5097145;27;47030;-46
2023/07/10 13:08:37;;;;;;;;;0.40;0.40;;;;;;;;5099366;27;45213;-54
2023/07/10 13:11:02;;;;;;;;;3.40;0.80;;;;;;;;5101139;27;45385;-55
2023/07/10 13:13:30;;;;;;;;;3.00;0.75;;;;;;;;5099785;27;45417;-54
2023/07/10 13:15:57;;;;;;;;;1.00;0.80;;;;;;;;5099095;27;45371;-48
2023/07/10 13:18:25;;;;;;;;;0.80;0.80;;;;;;;;5096973;27;45458;-50
2023/07/10 13:20:50;;;;;;;;;0.80;0.80;;;;;;;;5098247;27;45504;-49
2023/07/10 13:23:15;;;;;;;;;1.75;0.75;;;;;;;;5097828;27;45437;-45
2023/07/10 13:25:40;;;;;;;;;1.00;1.00;;;;;;;;5097093;27;45333;-51
2023/07/10 13:28:17;;;;;;;;;1.00;1.00;;;;;;;;5097035;27;45397;-46
2023/07/10 13:30:46;;;;;;;;;2.00;0.00;;;;;;;;5097636;27;45362;-52
2023/07/10 13:33:16;;;;;;;;;1.00;1.00;;;;;;;;5097698;27;45585;-48
2023/07/10 13:35:41;;;;;;;;;0.20;0.20;;;;;;;;5096837;27;45839;-55
2023/07/10 13:38:10;;;;;;;;;1.00;1.00;;;;;;;;5097631;27;45616;-45
2023/07/10 13:40:35;;;;;;;;;3.00;1.40;;;;;;;;5097846;27;45557;-55
2023/07/10 13:43:00;;;;;;;;;1.00;1.00;;;;;;;;5097622;27;45578;-46
2023/07/10 13:45:26;;;;;;;;;2.00;0.25;;;;;;;;5097385;27;45649;-51
2023/07/10 13:47:51;;;;;;;;;1.75;1.00;;;;;;;;5097540;27;45380;-47
2023/07/10 13:50:16;;;;;;;;;1.00;1.00;;;;;;;;5097132;27;45499;-46
2023/07/10 13:52:41;;;;;;;;;0.00;0.00;;;;;;;;5098028;27;45412;-44
2023/07/10 13:55:08;;;;;;;;;2.00;1.50;;;;;;;;5097670;27;46093;-47
2023/07/10 13:57:33;;;;;;;;;1.60;1.00;;;;;;;;5097120;27;45403;-46
2023/07/10 14:00:00;;;;;;;;;1.25;1.00;;;;;;;;5097613;27;45512;-51
2023/07/10 14:02:28;;;;;;;;;0.00;0.00;;;;;;;;5097657;27;45450;-56
2023/07/10 14:04:54;;;;;;;;;2.20;2.20;;;;;;;;5097259;27;46161;-45
2023/07/10 14:07:22;;;;;;;;;1.60;1.60;;;;;;;;5096693;27;45484;-47
2023/07/10 14:09:47;;;;;;;;;1.00;1.00;;;;;;;;5097310;27;45490;-48
2023/07/10 14:12:13;;;;;;;;;1.00;0.00;;;;;;;;5097374;27;45393;-49
2023/07/10 14:14:38;;;;;;;;;2.20;1.00;;;;;;;;5097042;27;45499;-49
2023/07/10 14:17:04;;;;;;;;;2.50;1.00;;;;;;;;5097212;27;45364;-56
2023/07/10 14:19:29;;;;;;;;;2.50;1.00;;;;;;;;5095637;27;45351;-49
2023/07/10 14:21:54;;;;;;;;;0.00;0.00;;;;;;;;5096935;27;45738;-50
2023/07/10 14:24:20;;;;;;;;;2.50;1.00;;;;;;;;5097012;27;46612;-47
2023/07/10 14:26:45;;;;;;;;;1.25;1.25;;;;;;;;5096818;27;45318;-46
2023/07/10 14:29:15;;;;;;;;;2.25;2.00;;;;;;;;5096827;27;46373;-48
2023/07/10 14:31:40;;;;;;;;;2.80;1.00;;;;;;;;5096468;27;45672;-48
2023/07/10 14:34:05;;;;;;;;;1.25;1.25;;;;;;;;5096228;27;46085;-47
2023/07/10 14:36:31;;;;;;;;;1.25;1.25;;;;;;;;5096973;27;45565;-47
2023/07/10 14:38:56;;;;;;;;;1.00;0.75;;;;;;;;5096901;27;45555;-56
2023/07/10 14:41:23;;;;;;;;;1.50;1.00;;;;;;;;5097144;27;45456;-44
2023/07/10 14:43:48;;;;;;;;;1.60;1.20;;;;;;;;5095018;27;46477;-47